sensor_id;sensor_type;location;lat;lon;timestamp;temperature;humidity
40848;DHT22;26570;50.962;5.340;2023-03-15T01:02:15;3.30;99.90
40848;DHT22;26570;50.962;5.340;2023-03-15T01:05:00;3.40;99.90
40848;DHT22;26570;50.962;5.340;2023-03-15T01:08:08;3.50;99.90
40848;DHT22;26570;50.962;5.340;2023-03-15T01:10:55;3.40;99.90
40848;DHT22;26570;50.962;5.340;2023-03-15T01:14:02;3.50;99.90
40848;DHT22;26570;50.962;5.340;2023-03-15T01:16:49;3.10;99.90
40848;DHT22;26570;50.962;5.340;2023-03-15T01:19:58;3.50;99.90
40848;DHT22;26570;50.962;5.340;2023-03-15T01:22:44;3.40;99.90
40848;DHT22;26570;50.962;5.340;2023-03-15T01:25:29;3.20;99.90
40848;DHT22;26570;50.962;5.340;2023-03-15T01:28:38;3.00;99.90
40848;DHT22;26570;50.962;5.340;2023-03-15T01:31:26;2.90;99.90
40848;DHT22;26570;50.962;5.340;2023-03-15T01:34:12;3.00;99.90
40848;DHT22;26570;50.962;5.340;2023-03-15T01:36:58;3.30;99.90
40848;DHT22;26570;50.962;5.340;2023-03-15T01:40:11;3.00;99.90
40848;DHT22;26570;50.962;5.340;2023-03-15T01:48:49;2.90;99.90
40848;DHT22;26570;50.962;5.340;2023-03-15T01:51:43;2.70;99.90
40848;DHT22;26570;50.962;5.340;2023-03-15T01:54:40;2.60;99.90
40848;DHT22;26570;50.962;5.340;2023-03-15T01:57:31;2.60;99.90
40848;DHT22;26570;50.962;5.340;2023-03-15T02:00:42;2.60;99.90
40848;DHT22;26570;50.962;5.340;2023-03-15T02:03:32;2.70;99.90
40848;DHT22;26570;50.962;5.340;2023-03-15T02:06:42;2.80;99.90
40848;DHT22;26570;50.962;5.340;2023-03-15T02:10:08;2.80;99.90
40848;DHT22;26570;50.962;5.340;2023-03-15T02:13:20;3.00;99.90
40848;DHT22;26570;50.962;5.340;2023-03-15T02:16:08;3.10;99.90
40848;DHT22;26570;50.962;5.340;2023-03-15T02:19:31;3.10;99.90
40848;DHT22;26570;50.962;5.340;2023-03-15T02:22:53;3.00;99.90
40848;DHT22;26570;50.962;5.340;2023-03-15T02:28:50;3.00;99.90
40848;DHT22;26570;50.962;5.340;2023-03-15T02:31:35;3.00;99.90
40848;DHT22;26570;50.962;5.340;2023-03-15T02:34:21;3.10;99.90
40848;DHT22;26570;50.962;5.340;2023-03-15T02:37:10;3.20;99.90
40848;DHT22;26570;50.962;5.340;2023-03-15T02:39:56;3.10;99.90
40848;DHT22;26570;50.962;5.340;2023-03-15T02:42:41;3.10;99.90
40848;DHT22;26570;50.962;5.340;2023-03-15T02:45:28;3.10;99.90
40848;DHT22;26570;50.962;5.340;2023-03-15T02:48:14;3.30;99.90
40848;DHT22;26570;50.962;5.340;2023-03-15T02:51:01;3.40;99.90
40848;DHT22;26570;50.962;5.340;2023-03-15T02:53:46;3.40;99.90
40848;DHT22;26570;50.962;5.340;2023-03-15T02:56:32;3.20;99.90
40848;DHT22;26570;50.962;5.340;2023-03-15T02:59:18;3.30;99.90
40848;DHT22;26570;50.962;5.340;2023-03-15T03:02:04;3.50;99.90
40848;DHT22;26570;50.962;5.340;2023-03-15T03:04:49;4.00;99.90
40848;DHT22;26570;50.962;5.340;2023-03-15T03:07:36;3.90;99.90
40848;DHT22;26570;50.962;5.340;2023-03-15T03:10:22;3.60;99.90
40848;DHT22;26570;50.962;5.340;2023-03-15T03:13:07;3.50;99.90
40848;DHT22;26570;50.962;5.340;2023-03-15T03:15:52;3.40;99.90
40848;DHT22;26570;50.962;5.340;2023-03-15T03:19:04;2.80;99.90
40848;DHT22;26570;50.962;5.340;2023-03-15T03:21:52;3.90;99.90
40848;DHT22;26570;50.962;5.340;2023-03-15T03:24:38;3.70;99.90
40848;DHT22;26570;50.962;5.340;2023-03-15T03:27:23;3.60;99.90
40848;DHT22;26570;50.962;5.340;2023-03-15T03:30:11;3.50;99.90
40848;DHT22;26570;50.962;5.340;2023-03-15T03:32:56;3.40;99.90
40848;DHT22;26570;50.962;5.340;2023-03-15T03:35:41;3.40;99.90
40848;DHT22;26570;50.962;5.340;2023-03-15T03:38:26;3.40;99.90
40848;DHT22;26570;50.962;5.340;2023-03-15T03:41:13;3.40;99.90
40848;DHT22;26570;50.962;5.340;2023-03-15T03:43:58;3.50;99.90
40848;DHT22;26570;50.962;5.340;2023-03-15T03:46:43;3.70;99.90
40848;DHT22;26570;50.962;5.340;2023-03-15T03:49:29;3.70;99.90
40848;DHT22;26570;50.962;5.340;2023-03-15T03:52:14;3.50;99.90
40848;DHT22;26570;50.962;5.340;2023-03-15T03:55:00;3.60;99.90
40848;DHT22;26570;50.962;5.340;2023-03-15T03:57:45;3.60;99.90
40848;DHT22;26570;50.962;5.340;2023-03-15T04:00:30;3.70;99.90
40848;DHT22;26570;50.962;5.340;2023-03-15T04:03:16;3.60;99.90
40848;DHT22;26570;50.962;5.340;2023-03-15T04:06:01;3.50;99.90
40848;DHT22;26570;50.962;5.340;2023-03-15T04:08:49;3.50;99.90
40848;DHT22;26570;50.962;5.340;2023-03-15T04:11:35;3.60;99.90
40848;DHT22;26570;50.962;5.340;2023-03-15T04:14:20;3.60;99.90
40848;DHT22;26570;50.962;5.340;2023-03-15T04:17:05;3.60;99.90
40848;DHT22;26570;50.962;5.340;2023-03-15T04:20:14;3.80;99.90
40848;DHT22;26570;50.962;5.340;2023-03-15T04:23:00;3.70;99.90
40848;DHT22;26570;50.962;5.340;2023-03-15T04:25:50;3.70;99.90
40848;DHT22;26570;50.962;5.340;2023-03-15T04:28:36;3.50;99.90
40848;DHT22;26570;50.962;5.340;2023-03-15T04:31:22;3.90;99.90
40848;DHT22;26570;50.962;5.340;2023-03-15T04:34:10;3.70;99.90
40848;DHT22;26570;50.962;5.340;2023-03-15T04:36:57;3.80;99.90
40848;DHT22;26570;50.962;5.340;2023-03-15T04:39:42;3.70;99.90
40848;DHT22;26570;50.962;5.340;2023-03-15T04:42:27;3.60;99.90
40848;DHT22;26570;50.962;5.340;2023-03-15T04:45:12;3.80;99.90
40848;DHT22;26570;50.962;5.340;2023-03-15T04:47:58;3.80;99.90
40848;DHT22;26570;50.962;5.340;2023-03-15T04:50:44;3.70;99.90
40848;DHT22;26570;50.962;5.340;2023-03-15T04:53:29;3.90;99.90
40848;DHT22;26570;50.962;5.340;2023-03-15T04:56:37;3.80;99.90
40848;DHT22;26570;50.962;5.340;2023-03-15T04:59:45;3.80;99.90
40848;DHT22;26570;50.962;5.340;2023-03-15T05:02:30;3.60;99.90
40848;DHT22;26570;50.962;5.340;2023-03-15T05:05:15;3.60;99.90
40848;DHT22;26570;50.962;5.340;2023-03-15T05:08:00;3.70;99.90
40848;DHT22;26570;50.962;5.340;2023-03-15T05:10:46;3.70;99.90
40848;DHT22;26570;50.962;5.340;2023-03-15T05:13:31;3.80;99.90
40848;DHT22;26570;50.962;5.340;2023-03-15T05:16:17;3.80;99.90
40848;DHT22;26570;50.962;5.340;2023-03-15T05:19:02;3.70;99.90
40848;DHT22;26570;50.962;5.340;2023-03-15T05:22:10;3.80;99.90
40848;DHT22;26570;50.962;5.340;2023-03-15T05:24:55;3.80;99.90
40848;DHT22;26570;50.962;5.340;2023-03-15T05:27:41;3.90;99.90
40848;DHT22;26570;50.962;5.340;2023-03-15T05:30:53;3.90;99.90
40848;DHT22;26570;50.962;5.340;2023-03-15T05:33:39;3.70;99.90
40848;DHT22;26570;50.962;5.340;2023-03-15T05:36:31;3.60;99.90
40848;DHT22;26570;50.962;5.340;2023-03-15T05:39:17;3.50;99.90
40848;DHT22;26570;50.962;5.340;2023-03-15T05:42:03;3.40;99.90
40848;DHT22;26570;50.962;5.340;2023-03-15T05:44:48;3.30;99.90
40848;DHT22;26570;50.962;5.340;2023-03-15T05:47:34;3.30;99.90
40848;DHT22;26570;50.962;5.340;2023-03-15T05:50:20;3.20;99.90
40848;DHT22;26570;50.962;5.340;2023-03-15T05:53:06;3.20;99.90
40848;DHT22;26570;50.962;5.340;2023-03-15T05:55:52;3.20;99.90
40848;DHT22;26570;50.962;5.340;2023-03-15T05:58:37;3.20;99.90
40848;DHT22;26570;50.962;5.340;2023-03-15T06:01:22;3.10;99.90
40848;DHT22;26570;50.962;5.340;2023-03-15T06:04:07;3.20;99.90
40848;DHT22;26570;50.962;5.340;2023-03-15T06:06:53;3.10;99.90
40848;DHT22;26570;50.962;5.340;2023-03-15T06:09:38;3.10;99.90
40848;DHT22;26570;50.962;5.340;2023-03-15T06:12:23;3.10;99.90
40848;DHT22;26570;50.962;5.340;2023-03-15T06:15:37;3.10;99.90
40848;DHT22;26570;50.962;5.340;2023-03-15T06:18:22;3.10;99.90
40848;DHT22;26570;50.962;5.340;2023-03-15T06:21:07;3.10;99.90
40848;DHT22;26570;50.962;5.340;2023-03-15T06:23:53;3.10;99.90
40848;DHT22;26570;50.962;5.340;2023-03-15T06:26:38;3.20;99.90
40848;DHT22;26570;50.962;5.340;2023-03-15T06:29:47;3.20;99.90
40848;DHT22;26570;50.962;5.340;2023-03-15T06:32:32;3.20;99.90
40848;DHT22;26570;50.962;5.340;2023-03-15T06:35:18;3.20;99.90
40848;DHT22;26570;50.962;5.340;2023-03-15T06:38:03;3.20;99.90
40848;DHT22;26570;50.962;5.340;2023-03-15T06:40:49;3.20;99.90
40848;DHT22;26570;50.962;5.340;2023-03-15T06:43:34;3.50;99.90
40848;DHT22;26570;50.962;5.340;2023-03-15T06:46:19;4.10;99.90
40848;DHT22;26570;50.962;5.340;2023-03-15T06:49:05;4.90;99.90
40848;DHT22;26570;50.962;5.340;2023-03-15T06:51:51;5.60;99.90
40848;DHT22;26570;50.962;5.340;2023-03-15T06:54:36;6.40;99.90
40848;DHT22;26570;50.962;5.340;2023-03-15T06:57:22;7.30;99.90
40848;DHT22;26570;50.962;5.340;2023-03-15T07:00:11;8.80;99.90
40848;DHT22;26570;50.962;5.340;2023-03-15T07:02:56;10.10;99.90
40848;DHT22;26570;50.962;5.340;2023-03-15T07:05:42;10.40;99.90
40848;DHT22;26570;50.962;5.340;2023-03-15T07:08:29;10.20;99.90
40848;DHT22;26570;50.962;5.340;2023-03-15T07:11:37;10.30;99.90
40848;DHT22;26570;50.962;5.340;2023-03-15T07:14:23;11.60;99.90
40848;DHT22;26570;50.962;5.340;2023-03-15T07:17:09;12.90;99.90
40848;DHT22;26570;50.962;5.340;2023-03-15T07:20:17;13.90;99.90
40848;DHT22;26570;50.962;5.340;2023-03-15T07:23:05;14.60;99.90
40848;DHT22;26570;50.962;5.340;2023-03-15T07:25:51;14.80;99.90
40848;DHT22;26570;50.962;5.340;2023-03-15T07:28:40;15.20;99.90
40848;DHT22;26570;50.962;5.340;2023-03-15T07:31:28;15.20;99.90
40848;DHT22;26570;50.962;5.340;2023-03-15T07:34:13;15.80;99.90
40848;DHT22;26570;50.962;5.340;2023-03-15T07:36:58;14.90;99.90
40848;DHT22;26570;50.962;5.340;2023-03-15T07:39:44;14.40;99.90
40848;DHT22;26570;50.962;5.340;2023-03-15T07:42:30;14.30;99.90
40848;DHT22;26570;50.962;5.340;2023-03-15T07:45:16;15.10;99.90
40848;DHT22;26570;50.962;5.340;2023-03-15T07:48:02;16.10;99.90
40848;DHT22;26570;50.962;5.340;2023-03-15T07:50:47;16.90;99.00
40848;DHT22;26570;50.962;5.340;2023-03-15T07:53:32;17.60;98.10
40848;DHT22;26570;50.962;5.340;2023-03-15T07:56:17;17.90;96.80
40848;DHT22;26570;50.962;5.340;2023-03-15T07:59:03;18.20;96.30
40848;DHT22;26570;50.962;5.340;2023-03-15T08:01:48;18.60;95.70
40848;DHT22;26570;50.962;5.340;2023-03-15T08:04:35;19.00;94.90
40848;DHT22;26570;50.962;5.340;2023-03-15T08:07:21;18.90;94.30
40848;DHT22;26570;50.962;5.340;2023-03-15T08:10:07;19.10;94.20
40848;DHT22;26570;50.962;5.340;2023-03-15T08:12:54;18.10;94.20
40848;DHT22;26570;50.962;5.340;2023-03-15T08:15:40;17.20;95.20
40848;DHT22;26570;50.962;5.340;2023-03-15T08:18:29;15.60;98.30
40848;DHT22;26570;50.962;5.340;2023-03-15T08:21:38;14.70;99.90
40848;DHT22;26570;50.962;5.340;2023-03-15T08:24:23;15.00;99.90
40848;DHT22;26570;50.962;5.340;2023-03-15T08:27:09;13.90;99.90
40848;DHT22;26570;50.962;5.340;2023-03-15T08:29:55;12.20;99.90
40848;DHT22;26570;50.962;5.340;2023-03-15T08:32:43;11.90;99.90
40848;DHT22;26570;50.962;5.340;2023-03-15T08:35:28;12.40;99.90
40848;DHT22;26570;50.962;5.340;2023-03-15T08:38:20;13.00;99.90
40848;DHT22;26570;50.962;5.340;2023-03-15T08:41:06;13.40;99.90
40848;DHT22;26570;50.962;5.340;2023-03-15T08:43:52;13.10;99.90
40848;DHT22;26570;50.962;5.340;2023-03-15T08:46:38;13.30;99.90
40848;DHT22;26570;50.962;5.340;2023-03-15T08:49:23;12.60;99.90
40848;DHT22;26570;50.962;5.340;2023-03-15T08:52:09;12.70;99.90
40848;DHT22;26570;50.962;5.340;2023-03-15T08:54:55;13.60;99.90
40848;DHT22;26570;50.962;5.340;2023-03-15T08:57:41;13.90;99.90
40848;DHT22;26570;50.962;5.340;2023-03-15T09:00:30;13.30;99.90
40848;DHT22;26570;50.962;5.340;2023-03-15T09:03:17;11.90;99.90
40848;DHT22;26570;50.962;5.340;2023-03-15T09:06:03;12.20;99.90
40848;DHT22;26570;50.962;5.340;2023-03-15T09:08:49;13.70;99.90
40848;DHT22;26570;50.962;5.340;2023-03-15T09:11:37;14.30;99.90
40848;DHT22;26570;50.962;5.340;2023-03-15T09:14:22;14.20;99.90
40848;DHT22;26570;50.962;5.340;2023-03-15T09:17:08;14.20;99.90
40848;DHT22;26570;50.962;5.340;2023-03-15T09:19:54;14.40;99.90
40848;DHT22;26570;50.962;5.340;2023-03-15T09:22:43;13.50;99.90
40848;DHT22;26570;50.962;5.340;2023-03-15T09:25:33;12.70;99.90
40848;DHT22;26570;50.962;5.340;2023-03-15T09:28:20;12.20;99.90
40848;DHT22;26570;50.962;5.340;2023-03-15T09:31:28;11.90;99.90
40848;DHT22;26570;50.962;5.340;2023-03-15T09:34:15;11.40;99.90
40848;DHT22;26570;50.962;5.340;2023-03-15T09:37:01;11.20;99.90
40848;DHT22;26570;50.962;5.340;2023-03-15T09:39:47;11.30;99.90
40848;DHT22;26570;50.962;5.340;2023-03-15T09:42:50;11.50;99.90
40848;DHT22;26570;50.962;5.340;2023-03-15T09:55:20;13.40;99.90
40848;DHT22;26570;50.962;5.340;2023-03-15T09:58:17;13.80;99.90
40848;DHT22;26570;50.962;5.340;2023-03-15T10:01:06;13.90;99.90
40848;DHT22;26570;50.962;5.340;2023-03-15T10:07:01;13.30;99.90
40848;DHT22;26570;50.962;5.340;2023-03-15T10:09:47;13.40;99.90
40848;DHT22;26570;50.962;5.340;2023-03-15T10:12:36;13.50;99.90
40848;DHT22;26570;50.962;5.340;2023-03-15T10:21:11;12.80;99.90
40848;DHT22;26570;50.962;5.340;2023-03-15T10:23:58;13.20;99.90
40848;DHT22;26570;50.962;5.340;2023-03-15T10:26:44;12.50;99.90
40848;DHT22;26570;50.962;5.340;2023-03-15T10:29:30;12.20;99.90
40848;DHT22;26570;50.962;5.340;2023-03-15T10:32:18;12.00;99.90
40848;DHT22;26570;50.962;5.340;2023-03-15T10:35:14;11.70;99.90
40848;DHT22;26570;50.962;5.340;2023-03-15T10:37:59;11.60;99.90
40848;DHT22;26570;50.962;5.340;2023-03-15T10:43:36;11.90;99.90
40848;DHT22;26570;50.962;5.340;2023-03-15T10:46:23;11.90;99.90
40848;DHT22;26570;50.962;5.340;2023-03-15T10:49:14;11.50;99.90
40848;DHT22;26570;50.962;5.340;2023-03-15T10:51:59;11.60;99.90
40848;DHT22;26570;50.962;5.340;2023-03-15T10:54:44;11.50;99.90
40848;DHT22;26570;50.962;5.340;2023-03-15T10:57:36;11.60;99.90
40848;DHT22;26570;50.962;5.340;2023-03-15T11:00:27;11.70;99.90
40848;DHT22;26570;50.962;5.340;2023-03-15T11:03:21;11.80;99.90
40848;DHT22;26570;50.962;5.340;2023-03-15T11:06:21;11.90;99.90
40848;DHT22;26570;50.962;5.340;2023-03-15T11:09:20;11.80;99.90
40848;DHT22;26570;50.962;5.340;2023-03-15T11:12:31;12.00;99.90
40848;DHT22;26570;50.962;5.340;2023-03-15T11:15:17;12.30;99.90
40848;DHT22;26570;50.962;5.340;2023-03-15T11:18:03;12.20;99.90
40848;DHT22;26570;50.962;5.340;2023-03-15T11:20:49;12.20;99.90
40848;DHT22;26570;50.962;5.340;2023-03-15T11:23:42;12.20;99.90
40848;DHT22;26570;50.962;5.340;2023-03-15T11:26:32;12.20;99.90
40848;DHT22;26570;50.962;5.340;2023-03-15T11:29:28;12.10;99.90
40848;DHT22;26570;50.962;5.340;2023-03-15T11:32:22;12.40;99.90
40848;DHT22;26570;50.962;5.340;2023-03-15T11:38:03;12.00;99.90
40848;DHT22;26570;50.962;5.340;2023-03-15T11:40:54;11.70;99.90
40848;DHT22;26570;50.962;5.340;2023-03-15T11:44:00;11.90;99.90
40848;DHT22;26570;50.962;5.340;2023-03-15T11:47:03;11.90;99.90
40848;DHT22;26570;50.962;5.340;2023-03-15T11:49:54;12.30;99.90
40848;DHT22;26570;50.962;5.340;2023-03-15T11:52:40;12.50;99.90
40848;DHT22;26570;50.962;5.340;2023-03-15T11:55:27;12.80;99.90
40848;DHT22;26570;50.962;5.340;2023-03-15T11:58:32;12.80;99.50
40848;DHT22;26570;50.962;5.340;2023-03-15T12:01:25;12.60;99.90
40848;DHT22;26570;50.962;5.340;2023-03-15T12:12:57;12.80;98.70
40848;DHT22;26570;50.962;5.340;2023-03-15T12:15:45;12.70;98.50
40848;DHT22;26570;50.962;5.340;2023-03-15T12:18:37;12.90;96.20
40848;DHT22;26570;50.962;5.340;2023-03-15T12:21:37;12.60;98.00
40848;DHT22;26570;50.962;5.340;2023-03-15T12:24:49;12.70;99.60
40848;DHT22;26570;50.962;5.340;2023-03-15T12:27:36;12.40;97.60
40848;DHT22;26570;50.962;5.340;2023-03-15T12:30:35;12.30;97.90
40848;DHT22;26570;50.962;5.340;2023-03-15T12:33:26;12.50;98.00
40848;DHT22;26570;50.962;5.340;2023-03-15T12:36:34;12.80;97.90
40848;DHT22;26570;50.962;5.340;2023-03-15T12:39:36;13.10;99.50
40848;DHT22;26570;50.962;5.340;2023-03-15T12:50:58;13.30;95.00
40848;DHT22;26570;50.962;5.340;2023-03-15T12:53:45;13.40;96.30
40848;DHT22;26570;50.962;5.340;2023-03-15T12:56:41;13.30;97.10
40848;DHT22;26570;50.962;5.340;2023-03-15T12:59:53;13.50;97.50
40848;DHT22;26570;50.962;5.340;2023-03-15T13:02:48;13.80;96.50
40848;DHT22;26570;50.962;5.340;2023-03-15T13:11:56;13.80;95.80
40848;DHT22;26570;50.962;5.340;2023-03-15T13:14:58;13.40;95.10
40848;DHT22;26570;50.962;5.340;2023-03-15T13:18:02;13.50;93.90
40848;DHT22;26570;50.962;5.340;2023-03-15T13:21:17;13.60;92.10
40848;DHT22;26570;50.962;5.340;2023-03-15T13:24:12;13.90;93.00
40848;DHT22;26570;50.962;5.340;2023-03-15T13:27:14;14.10;92.90
40848;DHT22;26570;50.962;5.340;2023-03-15T13:33:28;14.00;94.00
40848;DHT22;26570;50.962;5.340;2023-03-15T13:36:18;14.00;91.60
40848;DHT22;26570;50.962;5.340;2023-03-15T13:39:25;14.00;91.40
40848;DHT22;26570;50.962;5.340;2023-03-15T13:42:19;13.80;91.40
40848;DHT22;26570;50.962;5.340;2023-03-15T13:45:14;13.30;92.50
40848;DHT22;26570;50.962;5.340;2023-03-15T13:48:03;13.70;93.60
40848;DHT22;26570;50.962;5.340;2023-03-15T13:50:49;13.70;92.40
40848;DHT22;26570;50.962;5.340;2023-03-15T13:53:37;13.60;91.60
40848;DHT22;26570;50.962;5.340;2023-03-15T13:56:30;13.30;88.00
40848;DHT22;26570;50.962;5.340;2023-03-15T13:59:16;13.50;87.10
40848;DHT22;26570;50.962;5.340;2023-03-15T14:05:26;13.70;92.00
40848;DHT22;26570;50.962;5.340;2023-03-15T14:08:32;13.70;91.60
40848;DHT22;26570;50.962;5.340;2023-03-15T14:14:25;13.70;91.10
40848;DHT22;26570;50.962;5.340;2023-03-15T14:17:34;13.40;92.20
40848;DHT22;26570;50.962;5.340;2023-03-15T14:20:26;13.40;91.30
40848;DHT22;26570;50.962;5.340;2023-03-15T14:23:16;13.00;91.10
40848;DHT22;26570;50.962;5.340;2023-03-15T14:29:13;13.00;88.10
40848;DHT22;26570;50.962;5.340;2023-03-15T14:32:51;13.20;92.50
40848;DHT22;26570;50.962;5.340;2023-03-15T14:35:43;13.30;93.70
40848;DHT22;26570;50.962;5.340;2023-03-15T14:38:34;13.10;93.00
40848;DHT22;26570;50.962;5.340;2023-03-15T14:44:16;13.00;92.30
40848;DHT22;26570;50.962;5.340;2023-03-15T14:47:15;12.70;92.50
40848;DHT22;26570;50.962;5.340;2023-03-15T14:50:08;12.70;93.30
40848;DHT22;26570;50.962;5.340;2023-03-15T14:53:23;12.80;93.70
40848;DHT22;26570;50.962;5.340;2023-03-15T14:56:13;12.90;92.00
40848;DHT22;26570;50.962;5.340;2023-03-15T14:59:07;12.50;92.10
40848;DHT22;26570;50.962;5.340;2023-03-15T15:01:56;12.10;92.80
40848;DHT22;26570;50.962;5.340;2023-03-15T15:04:46;12.30;94.40
40848;DHT22;26570;50.962;5.340;2023-03-15T15:07:32;12.40;93.00
40848;DHT22;26570;50.962;5.340;2023-03-15T15:10:18;12.50;93.00
40848;DHT22;26570;50.962;5.340;2023-03-15T15:13:04;12.40;93.50
40848;DHT22;26570;50.962;5.340;2023-03-15T15:15:53;12.40;93.50
40848;DHT22;26570;50.962;5.340;2023-03-15T15:19:01;12.30;93.70
40848;DHT22;26570;50.962;5.340;2023-03-15T15:21:50;12.20;94.90
40848;DHT22;26570;50.962;5.340;2023-03-15T15:24:39;12.20;94.70
40848;DHT22;26570;50.962;5.340;2023-03-15T15:27:30;12.00;94.30
40848;DHT22;26570;50.962;5.340;2023-03-15T15:30:24;11.80;94.90
40848;DHT22;26570;50.962;5.340;2023-03-15T15:33:18;11.80;94.90
40848;DHT22;26570;50.962;5.340;2023-03-15T15:36:09;12.00;94.40
40848;DHT22;26570;50.962;5.340;2023-03-15T15:38:59;12.00;92.50
40848;DHT22;26570;50.962;5.340;2023-03-15T15:42:17;12.00;93.50
40848;DHT22;26570;50.962;5.340;2023-03-15T15:45:11;12.30;93.20
40848;DHT22;26570;50.962;5.340;2023-03-15T15:47:58;12.50;94.20
40848;DHT22;26570;50.962;5.340;2023-03-15T15:50:49;12.80;92.50
40848;DHT22;26570;50.962;5.340;2023-03-15T15:53:38;12.50;94.40
40848;DHT22;26570;50.962;5.340;2023-03-15T15:56:37;12.70;94.20
40848;DHT22;26570;50.962;5.340;2023-03-15T15:59:28;12.50;94.00
40848;DHT22;26570;50.962;5.340;2023-03-15T16:02:15;12.50;93.80
40848;DHT22;26570;50.962;5.340;2023-03-15T16:05:06;12.40;93.60
40848;DHT22;26570;50.962;5.340;2023-03-15T16:07:54;11.70;94.20
40848;DHT22;26570;50.962;5.340;2023-03-15T16:10:44;11.80;95.20
40848;DHT22;26570;50.962;5.340;2023-03-15T16:13:30;11.70;95.80
40848;DHT22;26570;50.962;5.340;2023-03-15T16:16:16;11.70;95.00
40848;DHT22;26570;50.962;5.340;2023-03-15T16:19:01;11.60;95.40
40848;DHT22;26570;50.962;5.340;2023-03-15T16:22:10;11.30;96.00
40848;DHT22;26570;50.962;5.340;2023-03-15T16:24:57;11.40;96.60
40848;DHT22;26570;50.962;5.340;2023-03-15T16:28:08;11.40;96.80
40848;DHT22;26570;50.962;5.340;2023-03-15T16:30:55;11.30;96.00
40848;DHT22;26570;50.962;5.340;2023-03-15T16:33:41;11.20;96.90
40848;DHT22;26570;50.962;5.340;2023-03-15T16:36:26;11.00;98.80
40848;DHT22;26570;50.962;5.340;2023-03-15T16:39:42;11.00;99.10
40848;DHT22;26570;50.962;5.340;2023-03-15T16:42:28;10.70;98.50
40848;DHT22;26570;50.962;5.340;2023-03-15T16:45:14;10.70;99.30
40848;DHT22;26570;50.962;5.340;2023-03-15T16:48:00;10.60;98.50
40848;DHT22;26570;50.962;5.340;2023-03-15T16:50:46;10.70;98.40
40848;DHT22;26570;50.962;5.340;2023-03-15T16:53:35;10.70;99.10
40848;DHT22;26570;50.962;5.340;2023-03-15T16:56:21;10.60;99.00
40848;DHT22;26570;50.962;5.340;2023-03-15T16:59:12;10.60;99.70
40848;DHT22;26570;50.962;5.340;2023-03-15T17:02:01;10.60;99.30
40848;DHT22;26570;50.962;5.340;2023-03-15T17:04:46;10.60;98.50
40848;DHT22;26570;50.962;5.340;2023-03-15T17:07:37;10.50;99.20
40848;DHT22;26570;50.962;5.340;2023-03-15T17:10:28;10.40;99.90
40848;DHT22;26570;50.962;5.340;2023-03-15T17:13:19;10.20;99.50
40848;DHT22;26570;50.962;5.340;2023-03-15T17:16:29;10.20;99.80
40848;DHT22;26570;50.962;5.340;2023-03-15T17:19:15;10.00;99.90
40848;DHT22;26570;50.962;5.340;2023-03-15T17:22:24;10.00;99.90
40848;DHT22;26570;50.962;5.340;2023-03-15T17:25:16;9.90;99.90
40848;DHT22;26570;50.962;5.340;2023-03-15T17:28:02;9.70;99.90
40848;DHT22;26570;50.962;5.340;2023-03-15T17:30:48;9.60;99.90
40848;DHT22;26570;50.962;5.340;2023-03-15T17:33:35;9.50;99.90
40848;DHT22;26570;50.962;5.340;2023-03-15T17:36:23;9.40;99.90
40848;DHT22;26570;50.962;5.340;2023-03-15T17:39:14;9.40;99.90
40848;DHT22;26570;50.962;5.340;2023-03-15T17:42:01;9.20;99.90
40848;DHT22;26570;50.962;5.340;2023-03-15T17:44:50;9.30;99.90
40848;DHT22;26570;50.962;5.340;2023-03-15T17:47:35;9.20;99.90
40848;DHT22;26570;50.962;5.340;2023-03-15T17:50:24;9.40;99.90
40848;DHT22;26570;50.962;5.340;2023-03-15T17:53:33;9.30;99.90
40848;DHT22;26570;50.962;5.340;2023-03-15T17:56:41;9.20;99.90
40848;DHT22;26570;50.962;5.340;2023-03-15T17:59:27;9.20;99.90
40848;DHT22;26570;50.962;5.340;2023-03-15T18:02:36;9.00;99.90
40848;DHT22;26570;50.962;5.340;2023-03-15T18:05:27;8.80;99.90
40848;DHT22;26570;50.962;5.340;2023-03-15T18:08:18;8.70;99.90
40848;DHT22;26570;50.962;5.340;2023-03-15T18:11:32;8.80;99.90
40848;DHT22;26570;50.962;5.340;2023-03-15T18:14:26;8.70;99.90
40848;DHT22;26570;50.962;5.340;2023-03-15T18:17:12;8.60;99.90
40848;DHT22;26570;50.962;5.340;2023-03-15T18:19:58;8.60;99.90
40848;DHT22;26570;50.962;5.340;2023-03-15T18:22:44;8.60;99.90
40848;DHT22;26570;50.962;5.340;2023-03-15T18:25:32;8.50;99.90
40848;DHT22;26570;50.962;5.340;2023-03-15T18:28:21;8.30;99.90
40848;DHT22;26570;50.962;5.340;2023-03-15T18:31:18;8.20;99.90
40848;DHT22;26570;50.962;5.340;2023-03-15T18:34:29;8.20;99.90
40848;DHT22;26570;50.962;5.340;2023-03-15T18:37:18;8.20;99.90
40848;DHT22;26570;50.962;5.340;2023-03-15T18:40:35;8.20;99.90
40848;DHT22;26570;50.962;5.340;2023-03-15T18:43:23;8.00;99.90
40848;DHT22;26570;50.962;5.340;2023-03-15T18:46:31;7.80;99.90
40848;DHT22;26570;50.962;5.340;2023-03-15T18:49:17;7.70;99.90
40848;DHT22;26570;50.962;5.340;2023-03-15T18:52:28;7.80;99.90
40848;DHT22;26570;50.962;5.340;2023-03-15T18:55:15;7.80;99.90
40848;DHT22;26570;50.962;5.340;2023-03-15T18:58:02;7.70;99.90
40848;DHT22;26570;50.962;5.340;2023-03-15T19:00:48;7.80;99.90
40848;DHT22;26570;50.962;5.340;2023-03-15T19:03:34;7.80;99.90
40848;DHT22;26570;50.962;5.340;2023-03-15T19:06:23;7.80;99.90
40848;DHT22;26570;50.962;5.340;2023-03-15T19:09:09;7.80;99.90
40848;DHT22;26570;50.962;5.340;2023-03-15T19:11:54;7.90;99.90
40848;DHT22;26570;50.962;5.340;2023-03-15T19:14:45;7.70;99.90
40848;DHT22;26570;50.962;5.340;2023-03-15T19:17:31;7.50;99.90
40848;DHT22;26570;50.962;5.340;2023-03-15T19:20:18;7.50;99.90
40848;DHT22;26570;50.962;5.340;2023-03-15T19:23:06;7.50;99.90
40848;DHT22;26570;50.962;5.340;2023-03-15T19:25:52;7.50;99.90
40848;DHT22;26570;50.962;5.340;2023-03-15T19:28:38;7.40;99.90
40848;DHT22;26570;50.962;5.340;2023-03-15T19:31:24;7.30;99.90
40848;DHT22;26570;50.962;5.340;2023-03-15T19:34:10;7.30;99.90
40848;DHT22;26570;50.962;5.340;2023-03-15T19:36:58;7.30;99.90
40848;DHT22;26570;50.962;5.340;2023-03-15T19:39:43;7.30;99.90
40848;DHT22;26570;50.962;5.340;2023-03-15T19:42:32;7.30;99.90
40848;DHT22;26570;50.962;5.340;2023-03-15T19:45:18;7.30;99.90
40848;DHT22;26570;50.962;5.340;2023-03-15T19:48:06;7.40;99.90
40848;DHT22;26570;50.962;5.340;2023-03-15T19:50:52;7.30;99.90
40848;DHT22;26570;50.962;5.340;2023-03-15T19:53:37;7.20;99.90
40848;DHT22;26570;50.962;5.340;2023-03-15T19:56:26;7.10;99.90
40848;DHT22;26570;50.962;5.340;2023-03-15T19:59:11;7.00;99.90
40848;DHT22;26570;50.962;5.340;2023-03-15T20:01:57;7.00;99.90
40848;DHT22;26570;50.962;5.340;2023-03-15T20:04:43;6.90;99.90
40848;DHT22;26570;50.962;5.340;2023-03-15T20:07:28;6.90;99.90
40848;DHT22;26570;50.962;5.340;2023-03-15T20:10:14;6.80;99.90
40848;DHT22;26570;50.962;5.340;2023-03-15T20:13:00;6.80;99.90
40848;DHT22;26570;50.962;5.340;2023-03-15T20:15:45;6.70;99.90
40848;DHT22;26570;50.962;5.340;2023-03-15T20:18:31;6.70;99.90
40848;DHT22;26570;50.962;5.340;2023-03-15T20:21:17;6.60;99.90